createdAt,value
2022-09-12T00:01:52.285Z,1.40
2022-09-12T00:04:19.304Z,1.20
2022-09-12T00:06:49.837Z,1.00
2022-09-12T00:09:16.516Z,1.00
2022-09-12T00:11:45.845Z,1.50
2022-09-12T00:14:14.912Z,1.50
2022-09-12T00:16:44.971Z,1.00
2022-09-12T00:19:12.464Z,1.60
2022-09-12T00:21:40.244Z,1.30
2022-09-12T00:24:07.858Z,1.40
2022-09-12T00:26:35.338Z,1.40
2022-09-12T00:29:02.270Z,1.20
2022-09-12T00:31:29.074Z,1.30
2022-09-12T00:34:00.176Z,1.10
2022-09-12T00:36:30.997Z,1.20
2022-09-12T00:38:58.646Z,1.20
2022-09-12T00:41:28.864Z,1.10
2022-09-12T00:43:59.054Z,1.20
2022-09-12T00:46:28.896Z,1.60
2022-09-12T00:48:56.895Z,1.20
2022-09-12T00:51:31.242Z,1.50
2022-09-12T00:54:02.892Z,1.30
2022-09-12T00:56:29.615Z,1.00
2022-09-12T00:59:00.872Z,1.30
2022-09-12T01:01:32.196Z,1.80
2022-09-12T01:04:01.284Z,1.60
2022-09-12T01:06:36.936Z,1.20
2022-09-12T01:09:04.765Z,1.30
2022-09-12T01:11:37.905Z,1.40
2022-09-12T01:14:06.974Z,1.30
2022-09-12T01:16:37.691Z,1.60
2022-09-12T01:19:48.842Z,1.40
2022-09-12T01:22:23.883Z,1.30
2022-09-12T01:24:52.875Z,1.30
2022-09-12T01:27:41.074Z,1.60
2022-09-12T01:30:13.848Z,1.60
2022-09-12T01:32:51.887Z,2.50
2022-09-12T01:35:29.860Z,1.60
2022-09-12T01:38:04.879Z,1.90
2022-09-12T01:40:36.705Z,1.80
2022-09-12T01:43:17.778Z,1.30
2022-09-12T01:45:54.977Z,1.40
2022-09-12T01:48:25.909Z,1.90
2022-09-12T01:51:06.854Z,1.40
2022-09-12T01:53:39.119Z,1.50
2022-09-12T01:56:20.915Z,1.20
2022-09-12T01:58:57.046Z,1.30
2022-09-12T02:01:33.246Z,1.20
2022-09-12T02:04:12.151Z,1.30
2022-09-12T02:06:43.890Z,1.10
2022-09-12T02:09:14.851Z,1.20
2022-09-12T02:11:44.444Z,1.10
2022-09-12T02:14:19.892Z,1.20
2022-09-12T02:17:01.877Z,1.20
2022-09-12T02:19:35.326Z,1.40
2022-09-12T02:22:15.058Z,1.60
2022-09-12T02:24:45.548Z,1.10
2022-09-12T02:27:17.897Z,1.10
2022-09-12T02:29:45.280Z,1.40
2022-09-12T02:32:19.266Z,1.90
2022-09-12T02:34:50.013Z,2.80
2022-09-12T02:37:35.879Z,3.10
2022-09-12T02:40:03.247Z,3.20
2022-09-12T02:42:37.764Z,5.40
2022-09-12T02:45:05.152Z,4.30
2022-09-12T02:47:33.911Z,3.60
2022-09-12T02:52:28.894Z,5.40
2022-09-12T02:54:59.937Z,2.70
2022-09-12T02:57:26.551Z,2.90
2022-09-12T02:59:56.608Z,3.70
2022-09-12T03:02:36.422Z,2.50
2022-09-12T03:05:21.951Z,3.00
2022-09-12T03:08:13.475Z,2.00
2022-09-12T03:11:01.938Z,3.10
2022-09-12T03:13:43.869Z,2.50
2022-09-12T03:16:24.272Z,2.30
2022-09-12T03:18:55.912Z,2.50
2022-09-12T03:21:25.943Z,2.10
2022-09-12T03:24:00.862Z,2.00
2022-09-12T03:26:37.578Z,2.40
2022-09-12T03:29:07.016Z,2.50
2022-09-12T03:31:33.779Z,2.80
2022-09-12T03:34:00.508Z,2.70
2022-09-12T03:36:28.975Z,2.70
2022-09-12T03:38:55.947Z,2.80
2022-09-12T03:41:22.728Z,2.40
2022-09-12T03:43:49.557Z,2.00
2022-09-12T03:46:16.269Z,2.00
2022-09-12T03:48:43.006Z,2.10
2022-09-12T03:51:10.327Z,2.00
2022-09-12T03:53:37.452Z,2.00
2022-09-12T03:56:08.743Z,2.00
2022-09-12T03:58:36.531Z,2.50
2022-09-12T04:01:11.746Z,11.00
2022-09-12T04:03:41.255Z,2.60
2022-09-12T04:06:10.517Z,2.80
2022-09-12T04:08:37.958Z,2.50
2022-09-12T04:11:06.594Z,2.40
2022-09-12T04:13:34.605Z,3.30
2022-09-12T04:16:01.665Z,2.40
2022-09-12T04:18:28.567Z,2.90
2022-09-12T04:20:55.370Z,2.30
2022-09-12T04:23:22.385Z,2.80
2022-09-12T04:25:56.461Z,3.80
2022-09-12T04:28:24.092Z,4.20
2022-09-12T04:30:51.430Z,5.50
2022-09-12T04:33:18.283Z,3.40
2022-09-12T04:35:44.971Z,3.40
2022-09-12T04:38:12.110Z,2.80
2022-09-12T04:40:39.115Z,3.30
2022-09-12T04:43:06.241Z,3.60
2022-09-12T04:45:33.318Z,2.60
2022-09-12T04:48:00.296Z,3.40
2022-09-12T04:50:27.118Z,3.90
2022-09-12T04:52:54.700Z,4.30
2022-09-12T04:55:22.113Z,3.90
2022-09-12T04:57:49.145Z,3.00
2022-09-12T05:00:16.328Z,2.90
2022-09-12T05:02:43.476Z,2.90
2022-09-12T05:05:10.938Z,3.00
2022-09-12T05:07:42.211Z,8.70
2022-09-12T05:10:09.593Z,5.70
2022-09-12T05:12:36.450Z,5.90
2022-09-12T05:15:04.118Z,3.40
2022-09-12T05:17:30.941Z,6.20
2022-09-12T05:20:02.152Z,4.70
2022-09-12T05:22:29.129Z,6.70
2022-09-12T05:24:55.866Z,6.00
2022-09-12T05:27:22.758Z,8.40
2022-09-12T05:29:49.677Z,7.90
2022-09-12T05:32:16.476Z,6.20
2022-09-12T05:34:43.259Z,7.20
2022-09-12T05:37:09.934Z,4.30
2022-09-12T05:42:05.506Z,4.10
2022-09-12T05:44:32.680Z,5.40
2022-09-12T05:46:59.495Z,4.30
2022-09-12T05:49:26.427Z,4.30
2022-09-12T05:51:53.509Z,4.60
2022-09-12T05:54:23.239Z,4.10
2022-09-12T05:56:50.165Z,4.30
2022-09-12T05:59:19.571Z,3.70
2022-09-12T06:02:10.510Z,3.30
2022-09-12T06:04:40.312Z,4.00
2022-09-12T06:07:07.032Z,3.30
2022-09-12T06:13:16.001Z,2.70
2022-09-12T06:16:07.656Z,3.00
2022-09-12T06:19:36.227Z,2.80
2022-09-12T06:26:12.578Z,2.90
2022-09-12T06:32:49.686Z,2.90
2022-09-12T06:35:16.650Z,2.60
2022-09-12T06:38:06.095Z,3.10
2022-09-12T06:40:33.256Z,4.00
2022-09-12T06:43:00.303Z,3.80
2022-09-12T06:54:39.002Z,3.20
2022-09-12T06:57:05.718Z,2.40
2022-09-12T06:59:55.352Z,3.40
2022-09-12T07:03:10.521Z,3.30
2022-09-12T07:18:37.152Z,3.50
2022-09-12T07:25:37.100Z,2.80
2022-09-12T07:32:06.555Z,2.30
2022-09-12T07:34:45.147Z,2.40
2022-09-12T08:01:42.217Z,3.10
2022-09-12T08:11:56.639Z,2.40
2022-09-12T08:41:34.306Z,3.30
2022-09-12T08:45:34.238Z,3.30
2022-09-12T08:48:46.173Z,2.90
2022-09-12T08:59:00.787Z,2.60
2022-09-12T09:25:28.860Z,2.90
2022-09-12T09:28:05.466Z,2.80
2022-09-12T09:39:03.550Z,2.40
2022-09-12T09:42:32.352Z,2.50
2022-09-12T09:48:49.607Z,3.00
2022-09-12T09:51:24.191Z,2.20
2022-09-12T09:54:02.842Z,2.60
2022-09-12T09:57:38.508Z,2.70
2022-09-12T10:00:32.161Z,2.40
2022-09-12T10:03:24.747Z,2.60
2022-09-12T10:07:03.389Z,4.40
2022-09-12T10:09:34.837Z,2.20
2022-09-12T10:12:19.706Z,2.20
2022-09-12T10:15:14.517Z,2.80
2022-09-12T10:17:46.761Z,2.80
2022-09-12T10:30:24.034Z,1.80
2022-09-12T10:37:06.869Z,3.30
2022-09-12T10:39:35.617Z,2.80
2022-09-12T10:42:03.724Z,2.70
2022-09-12T10:48:22.122Z,2.20
2022-09-12T10:50:49.033Z,2.80
2022-09-12T11:47:29.922Z,1.60
2022-09-12T11:54:27.277Z,1.70
2022-09-12T11:57:28.318Z,1.80
2022-09-12T12:04:54.587Z,1.60
2022-09-12T12:08:11.000Z,2.50
2022-09-12T12:14:47.339Z,1.60
2022-09-12T12:39:32.109Z,1.60
2022-09-12T12:42:37.802Z,1.40
2022-09-12T12:45:28.930Z,1.30
2022-09-12T13:07:07.962Z,1.70
2022-09-12T13:10:28.164Z,1.60
2022-09-12T13:17:37.103Z,1.60
2022-09-12T13:38:05.826Z,1.50
2022-09-12T13:41:29.632Z,1.30
2022-09-12T13:52:27.694Z,1.70
2022-09-12T14:02:30.667Z,1.90
2022-09-12T14:05:44.545Z,1.70
2022-09-12T14:08:17.562Z,1.90
2022-09-12T14:11:29.105Z,2.20
2022-09-12T14:25:18.791Z,1.90
2022-09-12T14:27:55.655Z,1.80
2022-09-12T14:30:42.008Z,2.10
2022-09-12T14:37:48.516Z,5.00
2022-09-12T14:40:23.122Z,2.30
2022-09-12T14:43:48.631Z,2.70
2022-09-12T14:46:33.911Z,2.10
2022-09-12T14:53:47.006Z,2.50
2022-09-12T15:08:14.644Z,2.40
2022-09-12T15:10:41.617Z,2.00
2022-09-12T15:13:14.627Z,2.60
2022-09-12T15:19:35.149Z,1.90
2022-09-12T15:23:10.377Z,1.90
2022-09-12T15:25:40.941Z,2.30
2022-09-12T15:29:06.871Z,3.50
2022-09-12T15:31:56.055Z,2.90
2022-09-12T15:34:47.073Z,2.70
2022-09-12T15:37:28.332Z,2.40
2022-09-12T16:03:48.223Z,2.70
2022-09-12T16:06:41.064Z,3.20
2022-09-12T16:09:16.583Z,4.20
2022-09-12T16:12:23.969Z,6.60
2022-09-12T16:19:34.948Z,11.20
2022-09-12T16:22:42.411Z,11.60
2022-09-12T16:40:45.625Z,2.80
2022-09-12T17:06:39.078Z,7.40
2022-09-12T17:13:10.840Z,6.60
2022-09-12T17:51:14.392Z,8.60
2022-09-12T17:54:39.849Z,9.30
2022-09-12T17:57:12.067Z,5.60
2022-09-12T18:12:01.902Z,4.30
2022-09-12T19:20:10.206Z,3.60
2022-09-12T21:07:40.826Z,2.50
2022-09-12T21:45:58.117Z,2.70
2022-09-12T22:23:52.392Z,1.90
2022-09-12T22:45:53.072Z,2.30
2022-09-12T22:49:21.879Z,2.20
2022-09-12T22:56:17.346Z,2.40
2022-09-12T22:59:11.246Z,2.50
2022-09-12T23:02:35.782Z,2.20
2022-09-12T23:09:08.683Z,2.50
2022-09-12T23:15:59.740Z,2.70
2022-09-12T23:30:00.087Z,1.60
2022-09-12T23:37:04.909Z,1.60
2022-09-12T23:39:31.822Z,1.80
